createdAt,value
2022-08-23T00:01:28.408Z,21.33
2022-08-23T00:04:06.526Z,21.33
2022-08-23T00:06:38.984Z,21.34
2022-08-23T00:09:13.181Z,21.35
2022-08-23T00:11:48.982Z,21.34
2022-08-23T00:14:24.842Z,21.33
2022-08-23T00:16:58.754Z,21.32
2022-08-23T00:19:31.404Z,21.30
2022-08-23T00:22:03.816Z,21.29
2022-08-23T00:24:40.758Z,21.26
2022-08-23T00:27:15.009Z,21.22
2022-08-23T00:29:49.516Z,21.18
2022-08-23T00:32:23.935Z,21.14
2022-08-23T00:34:56.129Z,21.10
2022-08-23T00:37:28.691Z,21.08
2022-08-23T00:40:01.084Z,21.08
2022-08-23T00:42:56.488Z,21.09
2022-08-23T00:45:51.667Z,21.10
2022-08-23T00:48:24.340Z,21.12
2022-08-23T00:51:04.566Z,21.13
2022-08-23T00:53:42.702Z,21.15
2022-08-23T00:56:18.472Z,21.16
2022-08-23T00:58:50.610Z,21.19
2022-08-23T01:01:22.857Z,21.22
2022-08-23T01:04:04.403Z,21.23
2022-08-23T01:06:44.173Z,21.27
2022-08-23T01:09:18.754Z,21.30
2022-08-23T01:11:55.630Z,21.32
2022-08-23T01:14:33.065Z,21.34
2022-08-23T01:17:08.073Z,21.36
2022-08-23T01:19:43.566Z,21.37
2022-08-23T01:22:21.124Z,21.35
2022-08-23T01:25:07.147Z,21.30
2022-08-23T01:27:44.030Z,21.27
2022-08-23T01:30:21.285Z,21.25
2022-08-23T01:32:56.348Z,21.23
2022-08-23T01:35:36.440Z,21.20
2022-08-23T01:38:10.753Z,21.19
2022-08-23T01:40:44.939Z,21.18
2022-08-23T01:43:19.824Z,21.17
2022-08-23T01:45:54.541Z,21.16
2022-08-23T01:48:28.348Z,21.18
2022-08-23T01:51:01.106Z,21.19
2022-08-23T01:53:34.140Z,21.18
2022-08-23T01:56:08.251Z,21.18
2022-08-23T01:58:42.489Z,21.19
2022-08-23T02:01:16.491Z,21.21
2022-08-23T02:03:57.238Z,21.23
2022-08-23T02:06:37.329Z,21.25
2022-08-23T02:09:17.707Z,21.24
2022-08-23T02:11:51.550Z,21.21
2022-08-23T02:14:24.407Z,21.19
2022-08-23T02:17:04.362Z,21.17
2022-08-23T02:19:41.355Z,21.12
2022-08-23T02:22:14.743Z,21.06
2022-08-23T02:24:48.664Z,21.00
2022-08-23T02:27:20.833Z,20.94
2022-08-23T02:29:53.124Z,20.91
2022-08-23T02:32:26.919Z,20.85
2022-08-23T02:35:05.148Z,20.80
2022-08-23T02:37:39.088Z,20.77
2022-08-23T02:40:12.927Z,20.75
2022-08-23T02:42:45.211Z,20.75
2022-08-23T02:45:18.490Z,20.74
2022-08-23T02:47:52.782Z,20.71
2022-08-23T02:50:31.152Z,20.72
2022-08-23T02:53:03.636Z,20.73
2022-08-23T02:55:36.072Z,20.73
2022-08-23T02:58:08.364Z,20.73
2022-08-23T03:00:40.668Z,20.73
2022-08-23T03:03:12.864Z,20.72
2022-08-23T03:05:45.343Z,20.73
2022-08-23T03:08:17.617Z,20.74
2022-08-23T03:10:54.282Z,20.73
2022-08-23T03:13:26.428Z,20.74
2022-08-23T03:15:59.632Z,20.75
2022-08-23T03:18:32.008Z,20.74
2022-08-23T03:21:05.929Z,20.74
2022-08-23T03:23:39.390Z,20.75
2022-08-23T03:26:13.883Z,20.74
2022-08-23T03:28:48.324Z,20.74
2022-08-23T03:31:22.485Z,20.74
2022-08-23T03:34:12.340Z,20.74
2022-08-23T03:36:44.889Z,20.74
2022-08-23T03:39:17.558Z,20.74
2022-08-23T03:41:50.113Z,20.75
2022-08-23T03:44:22.662Z,20.73
2022-08-23T03:46:54.814Z,20.70
2022-08-23T03:49:28.136Z,20.68
2022-08-23T03:52:02.188Z,20.67
2022-08-23T03:54:36.263Z,20.66
2022-08-23T03:57:10.795Z,20.65
2022-08-23T03:59:43.860Z,20.68
2022-08-23T04:02:17.137Z,20.72
2022-08-23T04:04:49.324Z,20.77
2022-08-23T04:07:27.593Z,20.81
2022-08-23T04:10:01.254Z,20.87
2022-08-23T04:12:37.134Z,20.92
2022-08-23T04:15:12.163Z,20.98
2022-08-23T04:17:44.616Z,21.02
2022-08-23T04:20:16.824Z,21.06
2022-08-23T04:22:57.365Z,21.08
2022-08-23T04:25:33.995Z,21.10
2022-08-23T04:28:08.322Z,21.11
2022-08-23T04:30:40.750Z,21.15
2022-08-23T04:33:17.825Z,21.19
2022-08-23T04:35:51.026Z,21.22
2022-08-23T04:38:25.102Z,21.29
2022-08-23T04:41:16.341Z,21.41
2022-08-23T04:43:50.705Z,21.57
2022-08-23T04:46:23.000Z,21.79
2022-08-23T04:48:56.107Z,22.11
2022-08-23T04:51:29.471Z,22.47
2022-08-23T04:54:01.690Z,22.81
2022-08-23T04:56:43.186Z,23.20
2022-08-23T04:59:15.934Z,23.53
2022-08-23T05:01:49.190Z,23.75
2022-08-23T05:04:21.805Z,23.98
2022-08-23T05:06:54.359Z,24.18
2022-08-23T05:09:27.158Z,24.24
2022-08-23T05:11:59.586Z,24.41
2022-08-23T05:14:32.945Z,24.69
2022-08-23T05:17:05.213Z,24.97
2022-08-23T05:19:39.432Z,25.36
2022-08-23T05:22:16.767Z,25.82
2022-08-23T05:25:10.165Z,26.18
2022-08-23T05:27:43.043Z,26.51
2022-08-23T05:30:16.031Z,26.93
2022-08-23T05:32:48.284Z,27.45
2022-08-23T05:35:20.851Z,28.03
2022-08-23T05:37:53.354Z,28.57
2022-08-23T05:40:25.604Z,29.03
2022-08-23T05:43:06.441Z,29.22
2022-08-23T05:45:38.672Z,29.17
2022-08-23T05:48:11.550Z,29.15
2022-08-23T05:50:56.081Z,29.28
2022-08-23T05:53:28.398Z,29.49
2022-08-23T05:56:09.261Z,29.78
2022-08-23T05:58:42.242Z,30.08
2022-08-23T06:01:15.137Z,30.36
2022-08-23T06:03:48.523Z,30.62
2022-08-23T06:06:21.656Z,30.82
2022-08-23T06:08:53.942Z,31.09
2022-08-23T06:11:28.141Z,31.41
2022-08-23T06:14:02.789Z,31.68
2022-08-23T06:16:37.869Z,32.05
2022-08-23T06:19:11.131Z,32.52
2022-08-23T06:21:55.664Z,33.21
2022-08-23T06:24:35.916Z,33.90
2022-08-23T06:27:18.937Z,34.75
2022-08-23T06:29:51.143Z,35.39
2022-08-23T06:32:38.740Z,35.91
2022-08-23T06:35:39.490Z,36.35
2022-08-23T06:38:36.192Z,36.81
2022-08-23T06:41:34.714Z,37.21
2022-08-23T06:44:32.620Z,37.59
2022-08-23T06:47:23.003Z,37.87
2022-08-23T06:49:57.631Z,38.17
2022-08-23T06:52:59.369Z,38.54
2022-08-23T06:55:45.469Z,38.65
2022-08-23T06:58:27.771Z,38.68
2022-08-23T07:01:44.585Z,38.64
2022-08-23T07:04:46.074Z,38.82
2022-08-23T07:07:37.679Z,38.70
2022-08-23T07:10:17.387Z,38.63
2022-08-23T07:12:50.257Z,38.68
2022-08-23T07:15:25.359Z,38.74
2022-08-23T07:17:57.808Z,38.78
2022-08-23T07:20:29.879Z,38.81
2022-08-23T07:23:02.302Z,38.84
2022-08-23T07:25:34.696Z,38.85
2022-08-23T07:28:12.297Z,38.85
2022-08-23T07:30:46.249Z,38.84
2022-08-23T07:33:19.796Z,38.77
2022-08-23T07:36:20.176Z,38.57
2022-08-23T07:38:53.222Z,38.40
2022-08-23T07:41:31.021Z,38.19
2022-08-23T07:44:08.286Z,37.97
2022-08-23T07:46:44.352Z,37.76
2022-08-23T07:49:17.408Z,37.51
2022-08-23T07:51:53.452Z,37.30
2022-08-23T07:54:28.085Z,37.03
2022-08-23T07:57:32.226Z,36.69
2022-08-23T08:00:19.026Z,36.35
2022-08-23T08:03:00.532Z,35.95
2022-08-23T08:05:40.716Z,35.62
2022-08-23T08:08:13.607Z,35.53
2022-08-23T08:10:45.830Z,35.55
2022-08-23T08:13:17.901Z,35.78
2022-08-23T08:15:50.726Z,36.23
2022-08-23T08:18:23.213Z,36.62
2022-08-23T08:21:16.937Z,37.13
2022-08-23T08:24:14.242Z,37.77
2022-08-23T08:26:50.383Z,38.20
2022-08-23T08:29:22.771Z,38.58
2022-08-23T08:31:56.573Z,38.88
2022-08-23T08:34:28.613Z,38.69
2022-08-23T08:37:01.059Z,38.28
2022-08-23T08:39:34.751Z,37.60
2022-08-23T08:42:26.798Z,36.99
2022-08-23T08:45:03.993Z,36.35
2022-08-23T08:47:48.593Z,35.88
2022-08-23T08:50:26.698Z,35.39
2022-08-23T08:53:09.368Z,34.98
2022-08-23T08:56:12.169Z,34.59
2022-08-23T08:58:53.137Z,34.28
2022-08-23T09:01:28.603Z,34.03
2022-08-23T09:04:01.955Z,33.80
2022-08-23T09:06:44.081Z,33.53
2022-08-23T09:09:34.339Z,33.32
2022-08-23T09:12:19.238Z,33.17
2022-08-23T09:15:07.211Z,33.20
2022-08-23T09:17:45.155Z,33.37
2022-08-23T09:20:20.939Z,33.74
2022-08-23T09:23:10.205Z,33.94
2022-08-23T09:25:52.032Z,34.04
2022-08-23T09:28:25.099Z,34.06
2022-08-23T09:31:00.442Z,34.05
2022-08-23T09:33:42.870Z,34.13
2022-08-23T09:36:29.010Z,34.16
2022-08-23T09:39:07.209Z,34.08
2022-08-23T09:41:43.780Z,34.07
2022-08-23T09:44:31.427Z,34.09
2022-08-23T09:47:11.985Z,34.39
2022-08-23T09:49:51.524Z,34.76
2022-08-23T09:52:27.215Z,35.08
2022-08-23T09:55:10.028Z,35.49
2022-08-23T09:57:49.982Z,36.03
2022-08-23T10:00:29.316Z,36.58
2022-08-23T10:03:23.617Z,37.01
2022-08-23T10:06:00.896Z,37.26
2022-08-23T10:08:43.112Z,37.60
2022-08-23T10:11:22.820Z,37.81
2022-08-23T10:13:55.132Z,38.20
2022-08-23T10:16:38.435Z,38.42
2022-08-23T10:19:27.181Z,38.55
2022-08-23T10:22:15.182Z,38.59
2022-08-23T10:25:02.722Z,38.51
2022-08-23T10:28:02.729Z,38.44
2022-08-23T10:30:38.001Z,38.40
2022-08-23T10:33:18.562Z,38.44
2022-08-23T10:36:03.256Z,38.36
2022-08-23T10:38:43.925Z,38.17
2022-08-23T10:41:35.264Z,38.16
2022-08-23T10:44:24.359Z,38.17
2022-08-23T10:47:09.962Z,38.22
2022-08-23T10:49:45.222Z,38.43
2022-08-23T10:52:22.007Z,38.56
2022-08-23T10:55:06.549Z,38.64
2022-08-23T10:57:41.957Z,38.77
2022-08-23T11:00:21.059Z,38.85
2022-08-23T11:03:01.349Z,38.89
2022-08-23T11:05:39.367Z,38.89
2022-08-23T11:08:36.947Z,38.91
2022-08-23T11:11:40.077Z,38.96
2022-08-23T11:14:14.873Z,39.08
2022-08-23T11:16:48.827Z,39.23
2022-08-23T11:19:53.070Z,39.17
2022-08-23T11:22:27.471Z,38.96
2022-08-23T11:25:05.211Z,38.80
2022-08-23T11:27:44.281Z,38.65
2022-08-23T11:30:34.886Z,38.32
2022-08-23T11:33:20.237Z,37.84
2022-08-23T11:35:55.939Z,37.60
2022-08-23T11:39:05.518Z,37.49
2022-08-23T11:41:59.060Z,37.23
2022-08-23T11:44:42.183Z,36.61
2022-08-23T11:47:27.899Z,36.28
2022-08-23T11:50:27.193Z,35.79
2022-08-23T11:53:16.997Z,35.40
2022-08-23T11:56:18.812Z,34.93
2022-08-23T11:59:15.780Z,34.67
2022-08-23T12:01:48.277Z,34.40
2022-08-23T12:04:37.584Z,33.98
2022-08-23T12:07:13.467Z,33.51
2022-08-23T12:09:57.614Z,33.31
2022-08-23T12:12:38.776Z,33.18
2022-08-23T12:15:13.844Z,33.12
2022-08-23T12:18:13.397Z,33.12
2022-08-23T12:20:48.571Z,33.06
2022-08-23T12:23:23.926Z,33.14
2022-08-23T12:26:13.101Z,33.31
2022-08-23T12:28:50.829Z,33.51
2022-08-23T12:31:33.637Z,33.65
2022-08-23T12:34:22.398Z,33.74
2022-08-23T12:37:08.846Z,33.82
2022-08-23T12:39:41.648Z,33.96
2022-08-23T12:42:16.786Z,33.93
2022-08-23T12:45:00.370Z,33.80
2022-08-23T12:47:33.527Z,33.55
2022-08-23T12:50:10.697Z,33.38
2022-08-23T12:52:43.491Z,33.26
2022-08-23T12:55:18.604Z,33.02
2022-08-23T12:57:58.287Z,32.70
2022-08-23T13:00:34.487Z,32.58
2022-08-23T13:03:21.149Z,32.52
2022-08-23T13:06:02.065Z,32.57
2022-08-23T13:08:40.463Z,32.69
2022-08-23T13:11:15.853Z,32.84
2022-08-23T13:13:48.298Z,32.94
2022-08-23T13:16:32.372Z,33.00
2022-08-23T13:19:19.314Z,32.97
2022-08-23T13:22:09.858Z,32.95
2022-08-23T13:24:44.076Z,32.91
2022-08-23T13:27:22.419Z,32.94
2022-08-23T13:29:58.143Z,33.12
2022-08-23T13:32:34.064Z,33.23
2022-08-23T13:35:36.784Z,33.36
2022-08-23T13:38:21.564Z,33.39
2022-08-23T13:41:05.092Z,33.43
2022-08-23T13:43:46.973Z,33.45
2022-08-23T13:46:23.049Z,33.43
2022-08-23T13:49:00.039Z,33.39
2022-08-23T13:51:37.139Z,33.31
2022-08-23T13:54:11.555Z,33.14
2022-08-23T13:56:50.493Z,32.99
2022-08-23T13:59:31.533Z,32.85
2022-08-23T14:02:08.392Z,32.70
2022-08-23T14:04:41.669Z,32.55
2022-08-23T14:07:15.345Z,32.41
2022-08-23T14:09:52.010Z,32.27
2022-08-23T14:12:29.365Z,32.13
2022-08-23T14:15:05.431Z,32.01
2022-08-23T14:17:43.045Z,31.80
2022-08-23T14:20:43.770Z,31.62
2022-08-23T14:23:11.964Z,31.50
2022-08-23T14:25:47.197Z,31.43
2022-08-23T14:28:19.971Z,31.37
2022-08-23T14:30:52.655Z,31.30
2022-08-23T14:33:25.029Z,31.21
2022-08-23T14:35:57.398Z,31.14
2022-08-23T14:38:29.689Z,31.06
2022-08-23T14:41:10.242Z,30.99
2022-08-23T14:43:42.646Z,30.91
2022-08-23T14:46:14.882Z,30.84
2022-08-23T14:48:47.393Z,30.79
2022-08-23T14:51:28.796Z,30.74
2022-08-23T14:54:03.882Z,30.70
2022-08-23T14:56:36.430Z,30.63
2022-08-23T14:59:08.759Z,30.57
2022-08-23T15:01:41.443Z,30.54
2022-08-23T15:04:18.236Z,30.51
2022-08-23T15:07:17.701Z,30.50
2022-08-23T15:09:44.516Z,30.47
2022-08-23T15:15:12.695Z,30.24
2022-08-23T15:17:52.655Z,30.06
2022-08-23T15:20:33.591Z,29.84
2022-08-23T15:23:06.581Z,29.64
2022-08-23T15:25:42.360Z,29.45
2022-08-23T15:28:19.060Z,29.25
2022-08-23T15:30:50.602Z,29.03
2022-08-23T15:33:27.009Z,28.79
2022-08-23T15:36:05.172Z,28.61
2022-08-23T15:38:38.514Z,28.47
2022-08-23T15:41:10.872Z,28.34
2022-08-23T15:43:44.487Z,28.21
2022-08-23T15:46:21.583Z,28.10
2022-08-23T15:48:58.584Z,27.98
2022-08-23T15:51:31.655Z,27.87
2022-08-23T15:54:06.197Z,27.77
2022-08-23T15:56:42.640Z,27.67
2022-08-23T15:59:14.555Z,27.55
2022-08-23T16:01:53.069Z,27.45
2022-08-23T16:04:25.544Z,27.37
2022-08-23T16:06:57.783Z,27.29
2022-08-23T16:09:31.275Z,27.21
2022-08-23T16:12:03.419Z,27.14
2022-08-23T16:14:35.531Z,27.08
2022-08-23T16:17:08.461Z,27.04
2022-08-23T16:19:40.683Z,26.99
2022-08-23T16:22:12.889Z,26.98
2022-08-23T16:24:45.319Z,26.96
2022-08-23T16:27:17.390Z,26.95
2022-08-23T16:29:49.771Z,26.93
2022-08-23T16:32:23.930Z,26.89
2022-08-23T16:34:57.903Z,26.85
2022-08-23T16:37:30.037Z,26.82
2022-08-23T16:40:03.229Z,26.77
2022-08-23T16:42:35.686Z,26.73
2022-08-23T16:45:09.519Z,26.70
2022-08-23T16:47:45.359Z,26.66
2022-08-23T16:50:17.673Z,26.63
2022-08-23T16:52:49.824Z,26.61
2022-08-23T16:55:22.588Z,26.61
2022-08-23T16:57:54.702Z,26.60
2022-08-23T17:00:27.915Z,26.60
2022-08-23T17:03:00.320Z,26.58
2022-08-23T17:05:33.095Z,26.56
2022-08-23T17:08:05.811Z,26.53
2022-08-23T17:10:39.495Z,26.49
2022-08-23T17:13:14.083Z,26.46
2022-08-23T17:15:48.473Z,26.42
2022-08-23T17:18:27.816Z,26.38
2022-08-23T17:21:00.395Z,26.28
2022-08-23T17:23:33.141Z,26.19
2022-08-23T17:26:09.817Z,26.05
2022-08-23T17:28:43.200Z,25.92
2022-08-23T17:31:16.242Z,25.80
2022-08-23T17:33:48.844Z,25.66
2022-08-23T17:36:32.445Z,25.55
2022-08-23T17:39:06.775Z,25.45
2022-08-23T17:41:44.980Z,25.37
2022-08-23T17:44:20.410Z,25.30
2022-08-23T17:46:53.115Z,25.20
2022-08-23T17:49:25.675Z,25.11
2022-08-23T17:51:57.764Z,25.03
2022-08-23T17:54:30.112Z,24.94
2022-08-23T17:57:04.884Z,24.85
2022-08-23T17:59:38.035Z,24.75
2022-08-23T18:02:10.234Z,24.67
2022-08-23T18:04:42.402Z,24.60
2022-08-23T18:07:14.601Z,24.53
2022-08-23T18:09:48.575Z,24.47
2022-08-23T18:12:21.652Z,24.42
2022-08-23T18:14:54.319Z,24.39
2022-08-23T18:17:26.969Z,24.35
2022-08-23T18:19:59.064Z,24.30
2022-08-23T18:22:31.333Z,24.25
2022-08-23T18:25:03.710Z,24.21
2022-08-23T18:27:53.661Z,24.16
2022-08-23T18:30:26.287Z,24.12
2022-08-23T18:32:58.551Z,24.09
2022-08-23T18:35:32.634Z,24.06
2022-08-23T18:38:05.454Z,24.05
2022-08-23T18:40:45.427Z,24.05
2022-08-23T18:43:20.101Z,24.04
2022-08-23T18:45:54.561Z,24.03
2022-08-23T18:48:27.192Z,24.01
2022-08-23T18:51:00.317Z,23.98
2022-08-23T18:53:32.781Z,23.94
2022-08-23T18:56:05.724Z,23.91
2022-08-23T18:58:37.848Z,23.86
2022-08-23T19:01:24.930Z,23.82
2022-08-23T19:04:00.464Z,23.76
2022-08-23T19:06:33.286Z,23.69
2022-08-23T19:09:06.563Z,23.65
2022-08-23T19:11:39.552Z,23.62
2022-08-23T19:14:12.798Z,23.60
2022-08-23T19:16:48.587Z,23.58
2022-08-23T19:19:21.179Z,23.56
2022-08-23T19:21:53.569Z,23.55
2022-08-23T19:24:25.960Z,23.52
2022-08-23T19:26:58.710Z,23.52
2022-08-23T19:29:31.857Z,23.50
2022-08-23T19:32:04.374Z,23.47
2022-08-23T19:34:36.551Z,23.46
2022-08-23T19:37:10.863Z,23.46
2022-08-23T19:39:53.315Z,23.46
2022-08-23T19:42:26.783Z,23.46
2022-08-23T19:44:58.994Z,23.47
2022-08-23T19:47:31.415Z,23.49
2022-08-23T19:50:04.913Z,23.50
2022-08-23T19:52:37.334Z,23.51
2022-08-23T19:55:12.120Z,23.51
2022-08-23T19:57:44.329Z,23.52
2022-08-23T20:00:19.800Z,23.54
2022-08-23T20:02:52.583Z,23.55
2022-08-23T20:05:24.780Z,23.55
2022-08-23T20:07:57.420Z,23.55
2022-08-23T20:10:30.249Z,23.56
2022-08-23T20:13:02.455Z,23.55
2022-08-23T20:15:34.754Z,23.53
2022-08-23T20:18:07.453Z,23.53
2022-08-23T20:20:39.671Z,23.55
2022-08-23T20:23:29.409Z,23.56
2022-08-23T20:26:01.592Z,23.55
2022-08-23T20:28:33.852Z,23.55
2022-08-23T20:31:16.162Z,23.55
2022-08-23T20:33:48.572Z,23.54
2022-08-23T20:36:21.475Z,23.54
2022-08-23T20:38:53.598Z,23.54
2022-08-23T20:41:25.952Z,23.54
2022-08-23T20:44:00.993Z,23.53
2022-08-23T20:46:33.926Z,23.50
2022-08-23T20:49:09.213Z,23.48
2022-08-23T20:51:42.052Z,23.47
2022-08-23T20:54:15.627Z,23.45
2022-08-23T20:56:50.548Z,23.44
2022-08-23T20:59:23.204Z,23.42
2022-08-23T21:01:55.447Z,23.40
2022-08-23T21:04:29.997Z,23.40
2022-08-23T21:07:02.967Z,23.39
2022-08-23T21:09:35.979Z,23.37
2022-08-23T21:12:09.216Z,23.35
2022-08-23T21:14:41.436Z,23.33
2022-08-23T21:17:13.548Z,23.32
2022-08-23T21:19:48.742Z,23.30
2022-08-23T21:22:20.947Z,23.28
2022-08-23T21:24:53.507Z,23.27
2022-08-23T21:27:27.216Z,23.26
2022-08-23T21:29:59.884Z,23.25
2022-08-23T21:32:32.142Z,23.24
2022-08-23T21:35:05.066Z,23.24
2022-08-23T21:37:37.314Z,23.23
2022-08-23T21:40:11.648Z,23.20
2022-08-23T21:42:44.314Z,23.19
2022-08-23T21:45:16.427Z,23.18
2022-08-23T21:47:49.019Z,23.17
2022-08-23T21:50:21.348Z,23.15
2022-08-23T21:52:58.850Z,23.12
2022-08-23T21:55:36.942Z,23.10
2022-08-23T21:58:10.076Z,23.07
2022-08-23T22:00:43.502Z,23.07
2022-08-23T22:03:15.698Z,23.08
2022-08-23T22:05:50.393Z,23.07
2022-08-23T22:08:22.576Z,23.06
2022-08-23T22:10:57.842Z,23.04
2022-08-23T22:13:33.054Z,23.03
2022-08-23T22:16:07.089Z,23.00
2022-08-23T22:18:39.788Z,22.96
2022-08-23T22:21:12.340Z,22.94
2022-08-23T22:23:45.049Z,22.91
2022-08-23T22:26:17.242Z,22.87
2022-08-23T22:28:49.550Z,22.85
2022-08-23T22:31:21.872Z,22.83
2022-08-23T22:33:54.075Z,22.82
2022-08-23T22:36:27.366Z,22.80
2022-08-23T22:38:59.676Z,22.79
2022-08-23T22:41:32.799Z,22.77
2022-08-23T22:44:06.068Z,22.75
2022-08-23T22:46:38.296Z,22.74
2022-08-23T22:49:10.801Z,22.74
2022-08-23T22:51:43.828Z,22.74
2022-08-23T22:54:16.007Z,22.73
2022-08-23T22:56:50.740Z,22.73
2022-08-23T22:59:27.647Z,22.72
2022-08-23T23:02:05.317Z,22.71
2022-08-23T23:04:37.583Z,22.69
2022-08-23T23:07:09.653Z,22.63
2022-08-23T23:09:43.835Z,22.60
2022-08-23T23:12:15.937Z,22.59
2022-08-23T23:14:48.255Z,22.57
2022-08-23T23:17:20.382Z,22.57
2022-08-23T23:20:09.703Z,22.58
2022-08-23T23:22:44.300Z,22.56
2022-08-23T23:25:16.523Z,22.54
2022-08-23T23:27:48.606Z,22.51
2022-08-23T23:30:21.268Z,22.48
2022-08-23T23:32:54.314Z,22.48
2022-08-23T23:35:28.346Z,22.47
2022-08-23T23:38:00.537Z,22.45
2022-08-23T23:40:32.864Z,22.45
2022-08-23T23:43:05.265Z,22.44
2022-08-23T23:45:38.522Z,22.41
2022-08-23T23:48:10.761Z,22.41
2022-08-23T23:50:45.550Z,22.40
2022-08-23T23:53:20.431Z,22.41
2022-08-23T23:56:02.205Z,22.42
2022-08-23T23:58:35.527Z,22.45
